05 Dec 2021 01:35 CST 2021339+01:35 CST

Overview Datums Bench Marks Data Query Site Visit Daily QC Messages Attributes

171: National Park Service - Bird Island

27° 29' 4" N   97° 19' 5" W
NPSBI
United States National Park Service United States National Park Service

Station Information

National Park Service - Bird Island
National Park Service - Bird Island
more pictures
 
Station Name:National Park Service - Bird Island
DNR ID:171
Location:27° 29' 4" N, 97° 19' 5" W

Water Level Forecasts

Latest Observations

Series Metric English Marine Observed at
Water Temperature 23.1 °C 73.6 °F 73.6 °F Dec 04 19:12 CST
00h12m ago
Salinity 30.200 psu 30.200 psu 30.200 psu Dec 04 19:12 CST
00h12m ago
Turbidity 8 ntu 8 ntu 8 ntu Dec 04 19:12 CST
00h12m ago
Dissolved Oxygen 6.35 mg/L 0.000396 lb/ft3 0.000396 lb/ft3 Dec 04 19:12 CST
00h12m ago

Maps

National Park Service - Bird Island
All Stations in Area
Entire Network
 

Recent Observations

Date/Time Water
Temp (°F)
Sal (psu) pH (pH) Turb (ntu) DO (lb/ft3)
Dec 04 19:00 CST 73.8 30.200 6 0.000391
Dec 04 18:00 CST 73.9 30.200 7 0.000461
Dec 04 17:00 CST 74.1 30.300 6 0.000519
Dec 04 16:00 CST 74.1 30.300 6 0.000518
Dec 04 15:00 CST 73.8 30.400 6 0.000508
Dec 04 14:00 CST 73.2 30.400 5 0.000461
Dec 04 13:00 CST 72.7 30.400 5 0.000411
Dec 04 12:00 CST 72.0 30.400 5 0.000344
Dec 04 11:00 CST 71.2 30.500 4 0.000317
Dec 04 10:00 CST 70.5 30.500 4 0.000275
Dec 04 09:00 CST 70.2 30.500 5 0.000237
Dec 04 08:00 CST 70.0 30.400 5 0.000229
Dec 04 07:00 CST 70.0 30.400 5 0.000230
Dec 04 06:00 CST 70.2 30.400 5 0.000239
Dec 04 05:00 CST 70.2 30.400 5 0.000270
Dec 04 04:00 CST 70.3 30.500 5 0.000308
Dec 04 03:00 CST 70.3 30.500 5 0.000323
Dec 04 02:00 CST 70.5 30.600 6 0.000326
Dec 04 01:00 CST 70.5 30.600 6 0.000348
Dec 04 00:00 CST 70.5 30.600 6 0.000373
Dec 03 23:00 CST 70.7 30.700 6 0.000410
Dec 03 22:00 CST 70.7 30.800 7 0.000439
Dec 03 21:00 CST 70.9 30.900 6 0.000475
Dec 03 20:00 CST 71.1 31.000 6 0.000505
Dec 03 19:00 CST 71.4 31.100 5 0.000607

Historical Data Availability